createdAt,value
2023-02-18T00:00:56.565Z,548.00
2023-02-18T00:01:56.608Z,541.00
2023-02-18T00:02:56.699Z,536.00
2023-02-18T00:03:56.700Z,543.00
2023-02-18T00:04:56.742Z,540.00
2023-02-18T00:05:56.748Z,534.00
2023-02-18T00:06:56.795Z,546.00
2023-02-18T00:07:56.882Z,544.00
2023-02-18T00:08:56.871Z,543.00
2023-02-18T00:09:56.930Z,541.00
2023-02-18T00:10:56.972Z,544.00
2023-02-18T00:11:57.081Z,547.00
2023-02-18T00:12:57.051Z,544.00
2023-02-18T00:13:57.122Z,537.00
2023-02-18T00:14:57.145Z,545.00
2023-02-18T00:15:57.236Z,543.00
2023-02-18T00:16:57.233Z,543.00
2023-02-18T00:17:57.297Z,540.00
2023-02-18T00:18:57.356Z,544.00
2023-02-18T00:19:57.375Z,539.00
2023-02-18T00:20:57.414Z,541.00
2023-02-18T00:21:57.481Z,541.00
2023-02-18T00:22:57.542Z,539.00
2023-02-18T00:23:57.543Z,541.00
2023-02-18T00:24:57.613Z,541.00
2023-02-18T00:25:57.633Z,547.00
2023-02-18T00:26:57.729Z,540.00
2023-02-18T00:27:57.754Z,542.00
2023-02-18T00:28:57.788Z,539.00
2023-02-18T00:29:57.879Z,542.00
2023-02-18T00:30:57.961Z,545.00
2023-02-18T00:31:57.988Z,540.00
2023-02-18T00:32:57.954Z,535.00
2023-02-18T00:33:57.987Z,538.00
2023-02-18T00:34:58.056Z,538.00
2023-02-18T00:35:58.077Z,540.00
2023-02-18T00:36:58.145Z,535.00
2023-02-18T00:37:58.200Z,536.00
2023-02-18T00:38:58.237Z,538.00
2023-02-18T00:39:58.285Z,538.00
2023-02-18T00:41:58.367Z,538.00
2023-02-18T00:42:58.444Z,536.00
2023-02-18T00:43:58.487Z,535.00
2023-02-18T00:44:58.508Z,532.00
2023-02-18T00:45:58.595Z,532.00
2023-02-18T00:46:58.606Z,534.00
2023-02-18T00:47:58.674Z,534.00
2023-02-18T00:48:58.681Z,529.00
2023-02-18T00:49:58.729Z,530.00
2023-02-18T00:50:58.784Z,530.00
2023-02-18T00:51:58.812Z,530.00
2023-02-18T00:52:58.855Z,534.00
2023-02-18T00:53:58.904Z,527.00
2023-02-18T00:54:58.923Z,524.00
2023-02-18T00:55:59.014Z,528.00
2023-02-18T00:56:59.050Z,527.00
2023-02-18T00:57:59.076Z,528.00
2023-02-18T00:58:59.179Z,529.00
2023-02-18T00:59:59.164Z,529.00
2023-02-18T01:00:59.209Z,524.00
2023-02-18T01:01:59.296Z,524.00
2023-02-18T01:02:59.313Z,526.00
2023-02-18T01:03:59.342Z,524.00
2023-02-18T01:04:59.442Z,518.00
2023-02-18T01:05:59.431Z,519.00
2023-02-18T01:06:59.482Z,520.00
2023-02-18T01:07:59.722Z,521.00
2023-02-18T01:08:59.549Z,526.00
2023-02-18T01:09:59.596Z,524.00
2023-02-18T01:10:59.650Z,520.00
2023-02-18T01:11:59.711Z,521.00
2023-02-18T01:12:59.755Z,523.00
2023-02-18T01:13:59.772Z,517.00
2023-02-18T01:14:59.794Z,518.00
2023-02-18T01:15:59.857Z,519.00
2023-02-18T01:16:59.903Z,523.00
2023-02-18T01:17:59.986Z,522.00
2023-02-18T01:19:00.003Z,517.00
2023-02-18T01:20:00.052Z,518.00
2023-02-18T01:21:00.103Z,519.00
2023-02-18T01:22:00.156Z,520.00
2023-02-18T01:23:00.225Z,522.00
2023-02-18T01:24:00.237Z,516.00
2023-02-18T01:25:00.284Z,515.00
2023-02-18T01:26:00.271Z,517.00
2023-02-18T01:27:00.322Z,517.00
2023-02-18T01:28:00.460Z,517.00
2023-02-18T01:29:00.430Z,520.00
2023-02-18T01:30:00.472Z,517.00
2023-02-18T01:31:00.540Z,516.00
2023-02-18T01:32:00.717Z,515.00
2023-02-18T01:33:00.590Z,514.00
2023-02-18T01:34:00.634Z,517.00
2023-02-18T01:35:00.685Z,520.00
2023-02-18T01:36:00.746Z,516.00
2023-02-18T01:37:00.752Z,515.00
2023-02-18T01:38:00.840Z,513.00
2023-02-18T01:39:00.834Z,517.00
2023-02-18T01:40:00.887Z,515.00
2023-02-18T01:41:00.932Z,512.00
2023-02-18T01:42:01.015Z,516.00
2023-02-18T02:27:03.095Z,512.00
2023-02-18T02:28:03.124Z,510.00
2023-02-18T02:29:03.172Z,507.00
2023-02-18T02:31:03.396Z,511.00
2023-02-18T02:32:03.300Z,510.00
2023-02-18T02:33:03.347Z,511.00
2023-02-18T02:34:03.398Z,514.00
2023-02-18T02:35:03.408Z,512.00
2023-02-18T02:36:03.463Z,512.00
2023-02-18T02:37:03.422Z,510.00
2023-02-18T02:38:03.494Z,518.00
2023-02-18T02:39:03.535Z,518.00
2023-02-18T02:40:03.599Z,519.00
2023-02-18T02:41:03.621Z,513.00
2023-02-18T02:42:03.666Z,510.00
2023-02-18T02:43:03.710Z,514.00
2023-02-18T02:44:03.772Z,514.00
2023-02-18T02:45:03.832Z,510.00
2023-02-18T02:46:03.936Z,514.00
2023-02-18T02:47:03.907Z,509.00
2023-02-18T02:48:03.934Z,513.00
2023-02-18T02:49:03.979Z,511.00
2023-02-18T02:50:04.061Z,514.00
2023-02-18T02:51:04.099Z,511.00
2023-02-18T02:52:04.138Z,510.00
2023-02-18T02:53:04.212Z,513.00
2023-02-18T02:57:04.412Z,516.00
2023-02-18T03:30:06.792Z,506.00
2023-02-18T03:31:06.172Z,501.00
2023-02-18T03:32:06.200Z,510.00
2023-02-18T03:33:06.110Z,507.00
2023-02-18T03:34:06.183Z,506.00
2023-02-18T03:35:06.216Z,509.00
2023-02-18T03:36:06.701Z,506.00
2023-02-18T03:37:06.346Z,508.00
2023-02-18T03:38:06.358Z,510.00
2023-02-18T03:39:06.403Z,505.00
2023-02-18T03:40:06.415Z,506.00
2023-02-18T03:41:06.489Z,503.00
2023-02-18T03:42:06.532Z,505.00
2023-02-18T03:43:06.577Z,509.00
2023-02-18T03:44:06.598Z,510.00
2023-02-18T03:45:06.699Z,510.00
2023-02-18T03:46:07.289Z,512.00
2023-02-18T03:47:06.782Z,509.00
2023-02-18T03:48:06.863Z,505.00
2023-02-18T03:49:06.880Z,508.00
2023-02-18T03:50:06.936Z,506.00
2023-02-18T03:51:06.949Z,507.00
2023-02-18T03:52:07.000Z,509.00
2023-02-18T03:53:07.071Z,506.00
2023-02-18T03:54:07.118Z,508.00
2023-02-18T03:55:07.181Z,508.00
2023-02-18T03:56:07.714Z,508.00
2023-02-18T03:57:07.235Z,510.00
2023-02-18T03:58:07.278Z,507.00
2023-02-18T03:59:07.321Z,505.00
2023-02-18T04:00:07.375Z,505.00
2023-02-18T04:01:07.482Z,511.00
2023-02-18T04:02:07.479Z,511.00
2023-02-18T04:03:07.492Z,509.00
2023-02-18T04:04:07.636Z,508.00
2023-02-18T04:23:08.775Z,512.00
2023-02-18T06:00:12.334Z,509.00
2023-02-18T06:02:12.443Z,510.00
2023-02-18T06:03:12.512Z,504.00
2023-02-18T06:04:12.533Z,506.00
2023-02-18T06:05:12.568Z,508.00
2023-02-18T06:06:12.641Z,511.00
2023-02-18T06:07:12.641Z,508.00
2023-02-18T06:08:12.693Z,510.00
2023-02-18T06:09:12.756Z,507.00
2023-02-18T06:10:12.819Z,508.00
2023-02-18T06:11:12.828Z,505.00
2023-02-18T06:12:12.884Z,507.00
2023-02-18T06:13:12.949Z,505.00
2023-02-18T06:14:12.995Z,507.00
2023-02-18T06:15:13.030Z,508.00
2023-02-18T06:16:13.187Z,503.00
2023-02-18T06:17:13.151Z,508.00
2023-02-18T06:18:13.168Z,509.00
2023-02-18T06:19:13.227Z,507.00
2023-02-18T06:20:13.261Z,509.00
2023-02-18T06:21:13.361Z,506.00
2023-02-18T06:22:13.395Z,506.00
2023-02-18T06:23:13.414Z,509.00
2023-02-18T06:24:13.475Z,505.00
2023-02-18T06:25:13.488Z,510.00
2023-02-18T06:26:13.522Z,509.00
2023-02-18T06:27:13.581Z,509.00
2023-02-18T06:28:13.618Z,511.00
2023-02-18T06:29:13.672Z,510.00
2023-02-18T06:30:13.791Z,510.00
2023-02-18T06:31:13.850Z,509.00
2023-02-18T06:32:13.847Z,509.00
2023-02-18T06:33:13.819Z,508.00
2023-02-18T06:34:13.892Z,505.00
2023-02-18T06:35:13.894Z,510.00
2023-02-18T06:36:13.980Z,508.00
2023-02-18T06:37:13.972Z,508.00
2023-02-18T06:38:14.028Z,511.00
2023-02-18T06:39:14.142Z,511.00
2023-02-18T06:40:14.149Z,507.00
2023-02-18T06:41:14.198Z,508.00
2023-02-18T06:42:14.220Z,507.00
2023-02-18T06:43:14.296Z,507.00
2023-02-18T06:44:14.329Z,507.00
2023-02-18T06:45:14.369Z,508.00
2023-02-18T06:46:14.467Z,510.00
2023-02-18T06:47:14.455Z,511.00
2023-02-18T06:48:14.493Z,506.00
2023-02-18T06:49:14.521Z,508.00
2023-02-18T06:50:14.531Z,512.00
2023-02-18T06:51:14.602Z,508.00
2023-02-18T06:52:14.663Z,514.00
2023-02-18T06:53:14.661Z,507.00
2023-02-18T06:54:14.729Z,510.00
2023-02-18T06:55:14.743Z,510.00
2023-02-18T06:56:14.813Z,515.00
2023-02-18T06:57:14.860Z,515.00
2023-02-18T06:58:14.906Z,512.00
2023-02-18T06:59:14.942Z,513.00
2023-02-18T07:01:15.146Z,511.00
2023-02-18T07:02:15.056Z,517.00
2023-02-18T07:03:15.149Z,511.00
2023-02-18T07:04:15.178Z,512.00
2023-02-18T07:05:15.210Z,518.00
2023-02-18T07:06:15.256Z,516.00
2023-02-18T07:07:15.220Z,510.00
2023-02-18T07:08:15.276Z,514.00
2023-02-18T07:09:15.349Z,517.00
2023-02-18T07:10:15.378Z,521.00
2023-02-18T07:11:15.432Z,519.00
2023-02-18T07:12:15.481Z,515.00
2023-02-18T07:13:15.490Z,515.00
2023-02-18T07:14:15.527Z,514.00
2023-02-18T07:15:15.547Z,516.00
2023-02-18T07:16:15.650Z,518.00
2023-02-18T07:17:15.654Z,517.00
2023-02-18T07:18:15.727Z,519.00
2023-02-18T07:19:16.108Z,518.00
2023-02-18T07:20:15.761Z,515.00
2023-02-18T07:21:15.807Z,514.00
2023-02-18T07:22:15.835Z,516.00
2023-02-18T07:23:15.874Z,520.00
2023-02-18T07:24:15.904Z,519.00
2023-02-18T07:25:15.928Z,520.00
2023-02-18T07:26:15.990Z,517.00
2023-02-18T07:27:16.020Z,522.00
2023-02-18T07:28:16.032Z,519.00
2023-02-18T07:29:16.070Z,523.00
2023-02-18T07:30:16.160Z,522.00
2023-02-18T07:31:16.321Z,526.00
2023-02-18T07:32:16.240Z,522.00
2023-02-18T07:33:16.214Z,523.00
2023-02-18T07:34:16.247Z,526.00
2023-02-18T07:35:16.247Z,525.00
2023-02-18T07:36:16.285Z,520.00
2023-02-18T07:37:16.329Z,528.00
2023-02-18T07:38:16.322Z,525.00
2023-02-18T07:39:16.387Z,519.00
2023-02-18T07:40:16.392Z,520.00
2023-02-18T07:41:16.435Z,526.00
2023-02-18T07:42:16.466Z,527.00
2023-02-18T07:43:16.497Z,530.00
2023-02-18T07:44:16.555Z,524.00
2023-02-18T07:45:16.604Z,528.00
2023-02-18T07:46:16.607Z,531.00
2023-02-18T07:47:16.646Z,529.00
2023-02-18T07:48:16.772Z,527.00
2023-02-18T07:49:16.758Z,527.00
2023-02-18T07:50:16.800Z,530.00
2023-02-18T07:51:16.836Z,532.00
2023-02-18T07:52:16.894Z,529.00
2023-02-18T07:53:16.898Z,527.00
2023-02-18T07:54:16.953Z,531.00
2023-02-18T07:55:16.983Z,529.00
2023-02-18T07:56:17.033Z,530.00
2023-02-18T07:57:17.042Z,532.00
2023-02-18T07:58:17.070Z,531.00
2023-02-18T07:59:17.089Z,529.00
2023-02-18T08:00:17.106Z,530.00
2023-02-18T08:01:17.158Z,531.00
2023-02-18T08:02:17.151Z,530.00
2023-02-18T08:03:17.212Z,528.00
2023-02-18T08:04:17.379Z,526.00
2023-02-18T08:05:17.338Z,529.00
2023-02-18T08:06:17.268Z,526.00
2023-02-18T08:07:17.312Z,529.00
2023-02-18T08:08:17.344Z,529.00
2023-02-18T08:09:17.406Z,528.00
2023-02-18T08:10:17.457Z,530.00
2023-02-18T08:11:19.707Z,522.00
2023-02-18T08:12:17.484Z,535.00
2023-02-18T08:13:17.530Z,531.00
2023-02-18T08:14:17.549Z,526.00
2023-02-18T08:15:17.608Z,530.00
2023-02-18T08:16:17.665Z,533.00
2023-02-18T08:17:17.617Z,532.00
2023-02-18T08:18:17.676Z,529.00
2023-02-18T08:19:17.735Z,532.00
2023-02-18T08:20:17.736Z,531.00
2023-02-18T08:21:17.778Z,534.00
2023-02-18T08:22:17.801Z,535.00
2023-02-18T08:23:17.809Z,533.00
2023-02-18T08:24:17.880Z,530.00
2023-02-18T08:25:29.036Z,535.00
2023-02-18T08:26:18.882Z,535.00
2023-02-18T08:27:17.906Z,535.00
2023-02-18T08:28:17.922Z,534.00
2023-02-18T08:29:17.914Z,534.00
2023-02-18T08:30:17.951Z,536.00
2023-02-18T08:31:18.022Z,531.00
2023-02-18T08:32:17.927Z,539.00
2023-02-18T08:33:17.940Z,532.00
2023-02-18T08:34:17.972Z,535.00
2023-02-18T08:35:17.956Z,534.00
2023-02-18T08:36:17.965Z,537.00
2023-02-18T08:37:17.940Z,535.00
2023-02-18T08:38:17.986Z,532.00
2023-02-18T08:39:17.980Z,535.00
2023-02-18T08:40:17.991Z,532.00
2023-02-18T08:41:18.005Z,535.00
2023-02-18T08:42:18.019Z,532.00
2023-02-18T08:43:18.017Z,528.00
2023-02-18T08:44:18.051Z,535.00
2023-02-18T08:45:18.064Z,535.00
2023-02-18T08:46:25.091Z,531.00
2023-02-18T08:48:17.980Z,531.00
2023-02-18T08:48:20.453Z,531.00
2023-02-18T08:49:18.217Z,532.00
2023-02-18T08:51:18.269Z,535.00
2023-02-18T08:52:18.306Z,536.00
2023-02-18T08:53:18.291Z,534.00
2023-02-18T08:54:18.316Z,535.00
2023-02-18T08:55:18.367Z,534.00
2023-02-18T08:56:18.381Z,538.00
2023-02-18T08:57:18.373Z,532.00
2023-02-18T08:58:18.389Z,525.00
2023-02-18T08:59:18.476Z,529.00
2023-02-18T09:00:18.460Z,530.00
2023-02-18T09:01:18.516Z,529.00
2023-02-18T09:02:18.547Z,534.00
2023-02-18T09:03:18.603Z,527.00
2023-02-18T09:04:18.628Z,533.00
2023-02-18T09:05:18.612Z,530.00
2023-02-18T09:06:18.633Z,531.00
2023-02-18T09:07:18.654Z,528.00
2023-02-18T09:08:18.666Z,527.00
2023-02-18T09:09:18.667Z,533.00
2023-02-18T09:10:18.708Z,534.00
2023-02-18T09:11:18.743Z,533.00
2023-02-18T09:12:18.801Z,531.00
2023-02-18T09:13:18.766Z,537.00
2023-02-18T09:14:18.802Z,533.00
2023-02-18T09:15:18.849Z,534.00
2023-02-18T09:16:18.847Z,536.00
2023-02-18T09:17:18.920Z,540.00
2023-02-18T09:18:18.912Z,535.00
2023-02-18T09:19:18.983Z,534.00
2023-02-18T09:20:18.992Z,533.00
2023-02-18T09:21:19.005Z,535.00
2023-02-18T09:22:19.096Z,533.00
2023-02-18T09:23:19.075Z,535.00
2023-02-18T09:24:19.096Z,530.00
2023-02-18T09:25:19.129Z,535.00
2023-02-18T09:26:19.146Z,533.00
2023-02-18T09:27:19.200Z,528.00
2023-02-18T09:28:19.927Z,532.00
2023-02-18T09:29:19.211Z,529.00
2023-02-18T09:30:19.270Z,532.00
2023-02-18T09:31:19.381Z,533.00
2023-02-18T09:32:32.448Z,524.00
2023-02-18T09:33:20.289Z,524.00
2023-02-18T09:53:19.365Z,533.00
2023-02-18T09:54:19.412Z,536.00
2023-02-18T09:55:19.388Z,532.00
2023-02-18T09:56:19.389Z,532.00
2023-02-18T09:57:19.411Z,537.00
2023-02-18T09:58:19.400Z,539.00
2023-02-18T09:59:19.452Z,540.00
2023-02-18T10:00:19.469Z,538.00
2023-02-18T10:01:19.533Z,530.00
2023-02-18T10:02:19.568Z,534.00
2023-02-18T10:03:19.588Z,540.00
2023-02-18T10:04:19.585Z,532.00
2023-02-18T10:05:19.620Z,534.00
2023-02-18T10:06:19.659Z,536.00
2023-02-18T10:07:19.722Z,535.00
2023-02-18T10:08:19.683Z,540.00
2023-02-18T10:09:19.742Z,538.00
2023-02-18T10:10:19.719Z,538.00
2023-02-18T10:12:19.789Z,538.00
2023-02-18T10:13:19.819Z,542.00
2023-02-18T10:14:20.432Z,534.00
2023-02-18T10:15:19.885Z,540.00
2023-02-18T10:16:19.937Z,537.00
2023-02-18T10:17:19.919Z,540.00
2023-02-18T10:18:19.938Z,537.00
2023-02-18T10:19:19.933Z,534.00
2023-02-18T10:20:20.040Z,536.00
2023-02-18T10:21:20.017Z,538.00
2023-02-18T10:22:20.058Z,541.00
2023-02-18T10:23:20.070Z,540.00
2023-02-18T10:24:20.133Z,541.00
2023-02-18T10:25:20.151Z,541.00
2023-02-18T10:26:20.152Z,540.00
2023-02-18T10:27:20.184Z,539.00
2023-02-18T10:28:20.252Z,537.00
2023-02-18T10:29:21.853Z,539.00
2023-02-18T10:30:20.457Z,535.00
2023-02-18T10:31:20.374Z,539.00
2023-02-18T10:32:20.337Z,548.00
2023-02-18T10:33:20.366Z,549.00
2023-02-18T10:34:20.436Z,544.00
2023-02-18T10:35:20.441Z,541.00
2023-02-18T10:36:20.466Z,537.00
2023-02-18T10:37:20.456Z,536.00
2023-02-18T10:38:20.508Z,538.00
2023-02-18T10:39:20.514Z,541.00
2023-02-18T10:40:20.572Z,540.00
2023-02-18T10:41:20.568Z,536.00
2023-02-18T10:42:20.603Z,542.00
2023-02-18T10:43:20.645Z,541.00
2023-02-18T10:44:20.644Z,539.00
2023-02-18T10:45:20.715Z,544.00
2023-02-18T10:46:20.741Z,544.00
2023-02-18T10:47:20.758Z,544.00
2023-02-18T10:48:20.787Z,545.00
2023-02-18T10:49:20.849Z,542.00
2023-02-18T10:50:20.819Z,541.00
2023-02-18T10:51:20.870Z,540.00
2023-02-18T10:52:20.920Z,542.00
2023-02-18T10:53:20.909Z,540.00
2023-02-18T11:48:22.192Z,532.00
2023-02-18T11:49:22.245Z,535.00
2023-02-18T11:50:22.293Z,527.00
2023-02-18T11:51:22.317Z,531.00
2023-02-18T11:52:22.333Z,540.00
2023-02-18T11:53:22.332Z,530.00
2023-02-18T11:54:22.382Z,534.00
2023-02-18T11:55:22.432Z,530.00
2023-02-18T11:56:22.446Z,529.00
2023-02-18T11:57:22.437Z,534.00
2023-02-18T11:58:22.489Z,531.00
2023-02-18T11:59:22.544Z,537.00
2023-02-18T12:00:22.632Z,537.00
2023-02-18T12:01:22.687Z,535.00
2023-02-18T12:02:22.766Z,535.00
2023-02-18T12:03:22.728Z,532.00
2023-02-18T12:04:22.764Z,529.00
2023-02-18T12:05:22.779Z,535.00
2023-02-18T12:06:22.805Z,528.00
2023-02-18T12:07:22.832Z,529.00
2023-02-18T12:08:22.849Z,532.00
2023-02-18T12:09:22.902Z,532.00
2023-02-18T12:10:22.915Z,525.00
2023-02-18T12:11:22.926Z,531.00
2023-02-18T12:12:22.967Z,527.00
2023-02-18T12:13:22.986Z,527.00
2023-02-18T12:14:23.005Z,526.00
2023-02-18T12:15:23.036Z,529.00
2023-02-18T12:16:23.084Z,524.00
2023-02-18T12:17:23.124Z,531.00
2023-02-18T12:18:23.152Z,531.00
2023-02-18T12:19:23.179Z,526.00
2023-02-18T12:20:23.295Z,529.00
2023-02-18T12:21:23.225Z,528.00
2023-02-18T12:22:23.251Z,530.00
2023-02-18T12:23:23.271Z,528.00
2023-02-18T12:24:23.318Z,529.00
2023-02-18T12:25:23.322Z,525.00
2023-02-18T12:26:23.374Z,524.00
2023-02-18T12:27:23.395Z,524.00
2023-02-18T12:28:23.460Z,528.00
2023-02-18T12:29:23.450Z,523.00
2023-02-18T12:30:23.582Z,528.00
2023-02-18T12:31:23.590Z,532.00
2023-02-18T12:32:23.525Z,532.00
2023-02-18T12:33:23.525Z,531.00
2023-02-18T12:34:23.588Z,536.00
2023-02-18T12:35:23.603Z,534.00
2023-02-18T12:36:23.658Z,534.00
2023-02-18T12:37:23.666Z,531.00
2023-02-18T12:38:23.677Z,533.00
2023-02-18T12:39:23.742Z,533.00
2023-02-18T12:40:23.761Z,534.00
2023-02-18T12:41:23.768Z,538.00
2023-02-18T12:42:23.805Z,538.00
2023-02-18T12:43:23.862Z,541.00
2023-02-18T12:44:23.849Z,535.00
2023-02-18T12:45:23.940Z,535.00
2023-02-18T12:46:23.981Z,530.00
2023-02-18T12:47:23.940Z,535.00
2023-02-18T12:48:23.992Z,535.00
2023-02-18T12:49:24.009Z,536.00
2023-02-18T12:50:24.076Z,534.00
2023-02-18T12:51:24.104Z,531.00
2023-02-18T12:52:24.137Z,530.00
2023-02-18T12:53:24.158Z,535.00
2023-02-18T12:54:24.242Z,535.00
2023-02-18T12:55:24.264Z,538.00
2023-02-18T12:56:24.251Z,538.00
2023-02-18T12:57:24.314Z,545.00
2023-02-18T12:58:24.341Z,542.00
2023-02-18T12:59:24.327Z,540.00
2023-02-18T13:00:24.382Z,539.00
2023-02-18T13:01:24.476Z,539.00
2023-02-18T13:02:24.420Z,536.00
2023-02-18T13:03:24.513Z,539.00
2023-02-18T13:04:24.508Z,541.00
2023-02-18T13:05:24.499Z,540.00
2023-02-18T13:06:24.521Z,535.00
2023-02-18T13:07:24.550Z,531.00
2023-02-18T13:08:24.610Z,532.00
2023-02-18T13:09:24.609Z,530.00
2023-02-18T13:10:24.629Z,530.00
2023-02-18T13:11:24.658Z,534.00
2023-02-18T13:12:24.703Z,538.00
2023-02-18T13:13:24.736Z,535.00
2023-02-18T13:14:24.743Z,531.00
2023-02-18T13:15:24.778Z,532.00
2023-02-18T13:16:24.836Z,537.00
2023-02-18T13:17:24.822Z,532.00
2023-02-18T13:18:24.872Z,531.00
2023-02-18T13:19:24.873Z,536.00
2023-02-18T13:20:24.925Z,539.00
2023-02-18T13:21:24.940Z,541.00
2023-02-18T13:22:24.964Z,539.00
2023-02-18T13:23:25.055Z,543.00
2023-02-18T13:24:24.986Z,545.00
2023-02-18T13:25:24.976Z,542.00
2023-02-18T13:26:25.035Z,546.00
2023-02-18T13:27:25.045Z,537.00
2023-02-18T13:28:25.037Z,535.00
2023-02-18T13:29:25.091Z,543.00
2023-02-18T13:30:25.158Z,537.00
2023-02-18T13:31:25.209Z,531.00
2023-02-18T13:32:25.131Z,535.00
2023-02-18T13:33:25.171Z,542.00
2023-02-18T13:34:25.206Z,548.00
2023-02-18T13:35:25.202Z,544.00
2023-02-18T13:36:25.232Z,545.00
2023-02-18T13:37:25.236Z,543.00
2023-02-18T13:38:25.269Z,546.00
2023-02-18T13:39:25.302Z,536.00
2023-02-18T13:40:25.368Z,539.00
2023-02-18T13:41:25.362Z,539.00
2023-02-18T13:42:25.370Z,542.00
2023-02-18T13:43:25.395Z,541.00
2023-02-18T13:44:25.386Z,552.00
2023-02-18T13:45:25.430Z,548.00
2023-02-18T13:46:25.537Z,541.00
2023-02-18T13:47:25.519Z,535.00
2023-02-18T13:48:25.522Z,538.00
2023-02-18T13:49:25.542Z,547.00
2023-02-18T13:50:25.585Z,548.00
2023-02-18T13:51:25.599Z,544.00
2023-02-18T13:52:25.621Z,536.00
2023-02-18T13:53:25.671Z,536.00
2023-02-18T13:54:25.636Z,547.00
2023-02-18T13:55:25.667Z,549.00
2023-02-18T13:56:25.667Z,526.00
2023-02-18T13:57:25.696Z,532.00
2023-02-18T13:58:25.717Z,543.00
2023-02-18T13:59:25.780Z,544.00
2023-02-18T14:00:25.805Z,529.00
2023-02-18T14:01:25.814Z,531.00
2023-02-18T14:02:25.993Z,537.00
2023-02-18T14:03:25.858Z,534.00
2023-02-18T14:04:25.857Z,537.00
2023-02-18T14:05:25.917Z,530.00
2023-02-18T14:06:25.953Z,500.00
2023-02-18T14:07:25.950Z,500.00
2023-02-18T14:08:25.975Z,505.00
2023-02-18T14:09:26.049Z,501.00
2023-02-18T14:10:26.019Z,533.00
2023-02-18T14:11:26.051Z,545.00
2023-02-18T14:12:26.108Z,537.00
2023-02-18T14:13:26.089Z,534.00
2023-02-18T14:14:26.160Z,539.00
2023-02-18T14:15:26.150Z,500.00
2023-02-18T14:16:26.220Z,522.00
2023-02-18T14:17:26.227Z,514.00
2023-02-18T14:18:26.249Z,507.00
2023-02-18T14:19:26.265Z,519.00
2023-02-18T14:20:26.301Z,530.00
2023-02-18T14:21:26.328Z,539.00
2023-02-18T14:22:26.370Z,530.00
2023-02-18T14:23:27.041Z,506.00
2023-02-18T14:24:26.393Z,516.00
2023-02-18T14:25:26.419Z,533.00
2023-02-18T14:26:26.452Z,521.00
2023-02-18T14:27:26.482Z,515.00
2023-02-18T14:28:26.504Z,511.00
2023-02-18T14:29:26.546Z,504.00
2023-02-18T14:30:26.663Z,515.00
2023-02-18T14:31:30.668Z,518.00
2023-02-18T14:32:26.686Z,518.00
2023-02-18T14:33:26.578Z,518.00
2023-02-18T14:34:26.588Z,522.00
2023-02-18T14:35:26.588Z,510.00
2023-02-18T14:36:26.620Z,515.00
2023-02-18T14:37:26.638Z,509.00
2023-02-18T14:38:26.618Z,503.00
2023-02-18T14:39:26.649Z,500.00
2023-02-18T14:40:26.705Z,500.00
2023-02-18T14:41:26.701Z,500.00
2023-02-18T14:42:26.679Z,512.00
2023-02-18T14:43:26.684Z,509.00
2023-02-18T14:44:26.682Z,502.00
2023-02-18T14:45:27.603Z,503.00
2023-02-18T14:46:26.751Z,501.00
2023-02-18T14:47:26.751Z,510.00
2023-02-18T14:48:26.748Z,519.00
2023-02-18T14:49:26.765Z,517.00
2023-02-18T14:50:26.779Z,504.00
2023-02-18T14:51:26.768Z,500.00
2023-02-18T14:52:26.791Z,501.00
2023-02-18T14:53:26.827Z,497.00
2023-02-18T14:54:26.848Z,508.00
2023-02-18T14:55:26.830Z,506.00
2023-02-18T14:56:26.843Z,505.00
2023-02-18T14:57:26.867Z,521.00
2023-02-18T14:58:26.895Z,517.00
2023-02-18T14:59:26.905Z,425.00
2023-02-18T15:00:26.917Z,460.00
2023-02-18T15:01:26.986Z,495.00
2023-02-18T15:02:26.921Z,527.00
2023-02-18T15:03:26.972Z,513.00
2023-02-18T15:04:26.979Z,531.00
2023-02-18T15:05:26.994Z,560.00
2023-02-18T15:06:27.016Z,579.00
2023-02-18T15:07:26.986Z,515.00
2023-02-18T15:08:27.037Z,514.00
2023-02-18T15:09:27.131Z,541.00
2023-02-18T15:10:27.041Z,552.00
2023-02-18T15:11:27.072Z,564.00
2023-02-18T15:12:27.092Z,579.00
2023-02-18T15:13:27.123Z,541.00
2023-02-18T15:14:27.144Z,565.00
2023-02-18T15:15:27.113Z,563.00
2023-02-18T15:16:27.308Z,571.00
2023-02-18T15:17:27.137Z,575.00
2023-02-18T15:18:27.166Z,566.00
2023-02-18T15:19:27.140Z,595.00
2023-02-18T15:20:27.159Z,576.00
2023-02-18T15:21:27.188Z,546.00
2023-02-18T15:22:27.245Z,533.00
2023-02-18T15:23:28.101Z,540.00
2023-02-18T15:24:27.322Z,556.00
2023-02-18T15:25:27.348Z,559.00
2023-02-18T15:26:27.355Z,530.00
2023-02-18T15:27:27.421Z,500.00
2023-02-18T15:28:27.444Z,523.00
2023-02-18T15:29:27.489Z,498.00
2023-02-18T15:30:27.592Z,534.00
2023-02-18T15:31:27.642Z,495.00
2023-02-18T15:32:27.719Z,532.00
2023-02-18T15:33:27.643Z,534.00
2023-02-18T15:34:27.691Z,567.00
2023-02-18T15:35:27.735Z,588.00
2023-02-18T15:36:27.792Z,581.00
2023-02-18T15:37:27.838Z,521.00
2023-02-18T15:38:27.857Z,506.00
2023-02-18T15:39:27.945Z,500.00
2023-02-18T15:40:27.963Z,512.00
2023-02-18T15:41:28.036Z,540.00
2023-02-18T15:42:28.051Z,550.00
2023-02-18T15:43:28.095Z,520.00
2023-02-18T15:44:28.114Z,542.00
2023-02-18T15:45:28.164Z,566.00
2023-02-18T15:46:28.254Z,520.00
2023-02-18T15:47:28.253Z,468.00
2023-02-18T15:48:28.294Z,513.00
2023-02-18T15:49:28.326Z,503.00
2023-02-18T15:50:28.351Z,558.00
2023-02-18T15:51:28.400Z,551.00
2023-02-18T15:52:28.460Z,537.00
2023-02-18T15:53:28.468Z,547.00
2023-02-18T15:54:28.551Z,537.00
2023-02-18T15:55:28.601Z,538.00
2023-02-18T15:56:28.725Z,566.00
2023-02-18T15:57:28.669Z,599.00
2023-02-18T15:58:28.696Z,607.00
2023-02-18T15:59:28.725Z,588.00
2023-02-18T16:00:28.815Z,572.00
2023-02-18T16:01:28.836Z,583.00
2023-02-18T16:02:28.830Z,580.00
2023-02-18T16:03:28.908Z,612.00
2023-02-18T16:04:28.926Z,603.00
2023-02-18T16:05:28.952Z,596.00
2023-02-18T16:06:28.997Z,561.00
2023-02-18T16:07:29.046Z,604.00
2023-02-18T16:08:29.086Z,627.00
2023-02-18T16:09:29.089Z,646.00
2023-02-18T16:10:29.149Z,674.00
2023-02-18T16:11:29.209Z,729.00
2023-02-18T16:12:29.240Z,747.00
2023-02-18T16:13:29.280Z,718.00
2023-02-18T16:14:29.275Z,629.00
2023-02-18T16:15:29.339Z,573.00
2023-02-18T16:16:29.502Z,562.00
2023-02-18T16:17:29.432Z,613.00
2023-02-18T16:18:29.515Z,612.00
2023-02-18T16:19:29.516Z,609.00
2023-02-18T16:20:29.562Z,645.00
2023-02-18T16:21:29.638Z,664.00
2023-02-18T16:22:29.710Z,656.00
2023-02-18T16:23:29.674Z,645.00
2023-02-18T16:24:29.753Z,648.00
2023-02-18T16:25:29.766Z,696.00
2023-02-18T16:26:29.819Z,740.00
2023-02-18T16:27:29.856Z,772.00
2023-02-18T16:28:29.907Z,756.00
2023-02-18T16:29:29.910Z,653.00
2023-02-18T16:30:30.040Z,645.00
2023-02-18T16:31:30.078Z,642.00
2023-02-18T16:32:30.061Z,614.00
2023-02-18T16:33:30.086Z,628.00
2023-02-18T16:34:30.227Z,719.00
2023-02-18T16:35:32.788Z,731.00
2023-02-18T16:36:30.221Z,733.00
2023-02-18T16:37:30.211Z,734.00
2023-02-18T16:38:30.229Z,748.00
2023-02-18T16:39:30.229Z,791.00
2023-02-18T16:40:30.258Z,836.00
2023-02-18T16:41:30.294Z,795.00
2023-02-18T16:42:30.293Z,829.00
2023-02-18T16:43:30.255Z,907.00
2023-02-18T16:44:30.282Z,932.00
2023-02-18T16:45:30.330Z,911.00
2023-02-18T16:46:30.365Z,695.00
2023-02-18T16:47:30.316Z,791.00
2023-02-18T16:48:30.334Z,861.00
2023-02-18T16:49:30.356Z,900.00
2023-02-18T16:50:30.337Z,901.00
2023-02-18T16:51:30.367Z,887.00
2023-02-18T16:52:30.358Z,822.00
2023-02-18T16:53:30.364Z,843.00
2023-02-18T16:55:30.378Z,920.00
2023-02-18T16:56:30.470Z,930.00
2023-02-18T16:57:30.441Z,929.00
2023-02-18T16:58:30.388Z,923.00
2023-02-18T16:59:30.406Z,998.00
2023-02-18T17:00:30.459Z,1022.00
2023-02-18T17:01:30.504Z,1050.00
2023-02-18T17:02:30.522Z,980.00